sensor_id;sensor_type;location;lat;lon;timestamp;P1;durP1;ratioP1;P2;durP2;ratioP2
31676;SDS011;18385;51.572;6.578;2024-01-11T00:01:45;32.35;;;11.85;;
31676;SDS011;18385;51.572;6.578;2024-01-11T00:04:12;35.55;;;12.98;;
31676;SDS011;18385;51.572;6.578;2024-01-11T00:06:44;36.53;;;12.93;;
31676;SDS011;18385;51.572;6.578;2024-01-11T00:09:10;30.83;;;11.27;;
31676;SDS011;18385;51.572;6.578;2024-01-11T00:11:35;32.35;;;12.48;;
31676;SDS011;18385;51.572;6.578;2024-01-11T00:14:01;37.97;;;12.02;;
31676;SDS011;18385;51.572;6.578;2024-01-11T00:16:27;31.13;;;11.95;;
31676;SDS011;18385;51.572;6.578;2024-01-11T00:18:52;30.42;;;12.05;;
31676;SDS011;18385;51.572;6.578;2024-01-11T00:21:18;35.85;;;13.23;;
31676;SDS011;18385;51.572;6.578;2024-01-11T00:23:44;32.08;;;11.80;;
31676;SDS011;18385;51.572;6.578;2024-01-11T00:26:12;33.05;;;11.68;;
31676;SDS011;18385;51.572;6.578;2024-01-11T00:28:38;31.77;;;11.27;;
31676;SDS011;18385;51.572;6.578;2024-01-11T00:31:04;31.15;;;11.75;;
31676;SDS011;18385;51.572;6.578;2024-01-11T00:33:29;36.50;;;12.35;;
31676;SDS011;18385;51.572;6.578;2024-01-11T00:35:55;35.50;;;13.40;;
31676;SDS011;18385;51.572;6.578;2024-01-11T00:38:21;38.63;;;12.60;;
31676;SDS011;18385;51.572;6.578;2024-01-11T00:40:47;33.28;;;11.98;;
31676;SDS011;18385;51.572;6.578;2024-01-11T00:43:12;30.02;;;10.90;;
31676;SDS011;18385;51.572;6.578;2024-01-11T00:45:38;46.78;;;13.00;;
31676;SDS011;18385;51.572;6.578;2024-01-11T00:48:04;34.05;;;11.60;;
31676;SDS011;18385;51.572;6.578;2024-01-11T00:50:29;32.03;;;11.38;;
31676;SDS011;18385;51.572;6.578;2024-01-11T00:52:56;35.17;;;11.63;;
31676;SDS011;18385;51.572;6.578;2024-01-11T00:55:21;37.00;;;12.70;;
31676;SDS011;18385;51.572;6.578;2024-01-11T00:57:47;30.50;;;12.95;;
31676;SDS011;18385;51.572;6.578;2024-01-11T01:00:13;33.42;;;12.40;;
31676;SDS011;18385;51.572;6.578;2024-01-11T01:02:41;36.90;;;12.82;;
31676;SDS011;18385;51.572;6.578;2024-01-11T01:05:07;35.15;;;12.27;;
31676;SDS011;18385;51.572;6.578;2024-01-11T01:07:33;35.80;;;12.23;;
31676;SDS011;18385;51.572;6.578;2024-01-11T01:09:59;40.97;;;12.82;;
31676;SDS011;18385;51.572;6.578;2024-01-11T01:12:25;36.33;;;11.80;;
31676;SDS011;18385;51.572;6.578;2024-01-11T01:14:51;32.42;;;11.70;;
31676;SDS011;18385;51.572;6.578;2024-01-11T01:17:16;35.10;;;13.73;;
31676;SDS011;18385;51.572;6.578;2024-01-11T01:19:42;36.80;;;12.95;;
31676;SDS011;18385;51.572;6.578;2024-01-11T01:22:08;39.72;;;14.02;;
31676;SDS011;18385;51.572;6.578;2024-01-11T01:24:34;38.53;;;13.10;;
31676;SDS011;18385;51.572;6.578;2024-01-11T01:27:00;37.50;;;13.55;;
31676;SDS011;18385;51.572;6.578;2024-01-11T01:29:26;35.47;;;13.45;;
31676;SDS011;18385;51.572;6.578;2024-01-11T01:31:51;36.90;;;12.85;;
31676;SDS011;18385;51.572;6.578;2024-01-11T01:34:17;39.45;;;12.82;;
31676;SDS011;18385;51.572;6.578;2024-01-11T01:36:43;36.25;;;13.65;;
31676;SDS011;18385;51.572;6.578;2024-01-11T01:39:09;38.13;;;14.10;;
31676;SDS011;18385;51.572;6.578;2024-01-11T01:41:35;40.10;;;13.02;;
31676;SDS011;18385;51.572;6.578;2024-01-11T01:44:00;35.08;;;13.35;;
31676;SDS011;18385;51.572;6.578;2024-01-11T01:46:26;35.22;;;13.50;;
31676;SDS011;18385;51.572;6.578;2024-01-11T01:48:53;33.67;;;13.02;;
31676;SDS011;18385;51.572;6.578;2024-01-11T01:51:20;34.50;;;12.93;;
31676;SDS011;18385;51.572;6.578;2024-01-11T01:53:48;29.65;;;11.93;;
31676;SDS011;18385;51.572;6.578;2024-01-11T01:56:15;33.45;;;13.50;;
31676;SDS011;18385;51.572;6.578;2024-01-11T01:58:42;33.80;;;13.75;;
31676;SDS011;18385;51.572;6.578;2024-01-11T02:01:08;37.05;;;13.27;;
31676;SDS011;18385;51.572;6.578;2024-01-11T02:03:34;32.25;;;11.30;;
31676;SDS011;18385;51.572;6.578;2024-01-11T02:06:01;32.78;;;12.65;;
31676;SDS011;18385;51.572;6.578;2024-01-11T02:08:29;37.40;;;13.27;;
31676;SDS011;18385;51.572;6.578;2024-01-11T02:10:57;39.63;;;13.23;;
31676;SDS011;18385;51.572;6.578;2024-01-11T02:13:26;40.33;;;12.95;;
31676;SDS011;18385;51.572;6.578;2024-01-11T02:15:52;36.67;;;12.25;;
31676;SDS011;18385;51.572;6.578;2024-01-11T02:18:17;34.25;;;12.60;;
31676;SDS011;18385;51.572;6.578;2024-01-11T02:20:43;31.70;;;12.68;;
31676;SDS011;18385;51.572;6.578;2024-01-11T02:23:12;37.47;;;12.70;;
31676;SDS011;18385;51.572;6.578;2024-01-11T02:25:42;37.05;;;12.60;;
31676;SDS011;18385;51.572;6.578;2024-01-11T02:28:07;33.83;;;12.63;;
31676;SDS011;18385;51.572;6.578;2024-01-11T02:30:33;38.03;;;12.23;;
31676;SDS011;18385;51.572;6.578;2024-01-11T02:32:59;34.58;;;11.20;;
31676;SDS011;18385;51.572;6.578;2024-01-11T02:35:26;32.75;;;13.38;;
31676;SDS011;18385;51.572;6.578;2024-01-11T02:37:53;38.65;;;12.73;;
31676;SDS011;18385;51.572;6.578;2024-01-11T02:40:19;34.25;;;13.43;;
31676;SDS011;18385;51.572;6.578;2024-01-11T02:42:45;39.70;;;12.75;;
31676;SDS011;18385;51.572;6.578;2024-01-11T02:45:11;33.00;;;11.35;;
31676;SDS011;18385;51.572;6.578;2024-01-11T02:47:37;33.63;;;11.98;;
31676;SDS011;18385;51.572;6.578;2024-01-11T02:50:04;36.13;;;11.73;;
31676;SDS011;18385;51.572;6.578;2024-01-11T02:52:30;28.30;;;10.88;;
31676;SDS011;18385;51.572;6.578;2024-01-11T02:54:56;30.92;;;12.32;;
31676;SDS011;18385;51.572;6.578;2024-01-11T02:57:22;35.33;;;14.43;;
31676;SDS011;18385;51.572;6.578;2024-01-11T02:59:49;39.47;;;13.32;;
31676;SDS011;18385;51.572;6.578;2024-01-11T03:02:14;30.90;;;12.90;;
31676;SDS011;18385;51.572;6.578;2024-01-11T03:04:40;32.80;;;11.82;;
31676;SDS011;18385;51.572;6.578;2024-01-11T03:07:06;36.35;;;12.82;;
31676;SDS011;18385;51.572;6.578;2024-01-11T03:09:32;40.95;;;13.95;;
31676;SDS011;18385;51.572;6.578;2024-01-11T03:11:59;29.77;;;10.93;;
31676;SDS011;18385;51.572;6.578;2024-01-11T03:14:25;32.88;;;12.18;;
31676;SDS011;18385;51.572;6.578;2024-01-11T03:16:50;35.60;;;13.05;;
31676;SDS011;18385;51.572;6.578;2024-01-11T03:19:16;33.42;;;12.05;;
31676;SDS011;18385;51.572;6.578;2024-01-11T03:21:45;34.15;;;10.43;;
31676;SDS011;18385;51.572;6.578;2024-01-11T03:26:37;32.15;;;10.95;;
31676;SDS011;18385;51.572;6.578;2024-01-11T03:29:03;31.40;;;11.75;;
31676;SDS011;18385;51.572;6.578;2024-01-11T03:31:28;33.50;;;12.10;;
31676;SDS011;18385;51.572;6.578;2024-01-11T03:33:54;41.97;;;12.27;;
31676;SDS011;18385;51.572;6.578;2024-01-11T03:36:22;28.13;;;10.98;;
31676;SDS011;18385;51.572;6.578;2024-01-11T03:38:49;38.85;;;13.55;;
31676;SDS011;18385;51.572;6.578;2024-01-11T03:41:15;35.88;;;12.80;;
31676;SDS011;18385;51.572;6.578;2024-01-11T03:43:41;33.03;;;10.98;;
31676;SDS011;18385;51.572;6.578;2024-01-11T03:46:07;36.38;;;13.25;;
31676;SDS011;18385;51.572;6.578;2024-01-11T03:48:32;33.20;;;11.38;;
31676;SDS011;18385;51.572;6.578;2024-01-11T03:51:00;34.58;;;11.55;;
31676;SDS011;18385;51.572;6.578;2024-01-11T03:53:26;33.22;;;12.52;;
31676;SDS011;18385;51.572;6.578;2024-01-11T03:55:52;38.17;;;13.05;;
31676;SDS011;18385;51.572;6.578;2024-01-11T03:58:17;24.98;;;10.02;;
31676;SDS011;18385;51.572;6.578;2024-01-11T04:00:43;32.35;;;12.40;;
31676;SDS011;18385;51.572;6.578;2024-01-11T04:03:08;36.53;;;13.05;;
31676;SDS011;18385;51.572;6.578;2024-01-11T04:05:34;36.42;;;12.07;;
31676;SDS011;18385;51.572;6.578;2024-01-11T04:08:02;35.47;;;12.45;;
31676;SDS011;18385;51.572;6.578;2024-01-11T04:10:29;29.63;;;11.07;;
31676;SDS011;18385;51.572;6.578;2024-01-11T04:12:55;35.72;;;12.27;;
31676;SDS011;18385;51.572;6.578;2024-01-11T04:15:21;30.58;;;11.90;;
31676;SDS011;18385;51.572;6.578;2024-01-11T04:17:46;32.17;;;11.68;;
31676;SDS011;18385;51.572;6.578;2024-01-11T04:20:12;27.70;;;11.02;;
31676;SDS011;18385;51.572;6.578;2024-01-11T04:22:38;31.48;;;12.35;;
31676;SDS011;18385;51.572;6.578;2024-01-11T04:25:04;29.23;;;10.45;;
31676;SDS011;18385;51.572;6.578;2024-01-11T04:27:30;32.78;;;11.52;;
31676;SDS011;18385;51.572;6.578;2024-01-11T04:29:56;37.72;;;13.23;;
31676;SDS011;18385;51.572;6.578;2024-01-11T04:32:21;35.45;;;11.35;;
31676;SDS011;18385;51.572;6.578;2024-01-11T04:34:47;34.45;;;12.98;;
31676;SDS011;18385;51.572;6.578;2024-01-11T04:37:13;42.17;;;12.07;;
31676;SDS011;18385;51.572;6.578;2024-01-11T04:39:38;30.48;;;11.02;;
31676;SDS011;18385;51.572;6.578;2024-01-11T04:42:04;41.70;;;13.23;;
31676;SDS011;18385;51.572;6.578;2024-01-11T04:44:30;35.35;;;12.90;;
31676;SDS011;18385;51.572;6.578;2024-01-11T04:46:55;34.75;;;11.80;;
31676;SDS011;18385;51.572;6.578;2024-01-11T04:49:22;34.95;;;12.65;;
31676;SDS011;18385;51.572;6.578;2024-01-11T04:51:47;32.83;;;11.85;;
31676;SDS011;18385;51.572;6.578;2024-01-11T04:54:13;33.55;;;11.43;;
31676;SDS011;18385;51.572;6.578;2024-01-11T04:56:38;37.15;;;12.32;;
31676;SDS011;18385;51.572;6.578;2024-01-11T04:59:04;33.42;;;12.13;;
31676;SDS011;18385;51.572;6.578;2024-01-11T05:01:30;32.53;;;11.27;;
31676;SDS011;18385;51.572;6.578;2024-01-11T05:03:55;34.60;;;12.90;;
31676;SDS011;18385;51.572;6.578;2024-01-11T05:06:21;33.40;;;12.75;;
31676;SDS011;18385;51.572;6.578;2024-01-11T05:08:47;35.95;;;12.30;;
31676;SDS011;18385;51.572;6.578;2024-01-11T05:11:15;31.48;;;12.13;;
31676;SDS011;18385;51.572;6.578;2024-01-11T05:13:44;33.15;;;12.30;;
31676;SDS011;18385;51.572;6.578;2024-01-11T05:16:22;35.00;;;12.10;;
31676;SDS011;18385;51.572;6.578;2024-01-11T05:18:50;36.72;;;12.35;;
31676;SDS011;18385;51.572;6.578;2024-01-11T05:21:16;29.17;;;11.82;;
31676;SDS011;18385;51.572;6.578;2024-01-11T05:23:42;38.65;;;12.75;;
31676;SDS011;18385;51.572;6.578;2024-01-11T05:26:09;37.30;;;11.93;;
31676;SDS011;18385;51.572;6.578;2024-01-11T05:28:34;29.70;;;9.82;;
31676;SDS011;18385;51.572;6.578;2024-01-11T05:31:00;32.22;;;12.15;;
31676;SDS011;18385;51.572;6.578;2024-01-11T05:33:26;38.17;;;12.90;;
31676;SDS011;18385;51.572;6.578;2024-01-11T05:35:52;31.17;;;13.20;;
31676;SDS011;18385;51.572;6.578;2024-01-11T05:38:19;30.90;;;11.02;;
31676;SDS011;18385;51.572;6.578;2024-01-11T05:40:45;31.13;;;11.15;;
31676;SDS011;18385;51.572;6.578;2024-01-11T05:43:10;34.10;;;11.60;;
31676;SDS011;18385;51.572;6.578;2024-01-11T05:45:36;33.55;;;10.85;;
31676;SDS011;18385;51.572;6.578;2024-01-11T05:48:02;35.72;;;12.82;;
31676;SDS011;18385;51.572;6.578;2024-01-11T05:50:27;30.88;;;11.05;;
31676;SDS011;18385;51.572;6.578;2024-01-11T05:52:53;33.42;;;11.60;;
31676;SDS011;18385;51.572;6.578;2024-01-11T05:55:19;35.85;;;12.18;;
31676;SDS011;18385;51.572;6.578;2024-01-11T05:57:45;31.63;;;10.40;;
31676;SDS011;18385;51.572;6.578;2024-01-11T06:00:11;31.65;;;11.02;;
31676;SDS011;18385;51.572;6.578;2024-01-11T06:02:37;33.28;;;11.35;;
31676;SDS011;18385;51.572;6.578;2024-01-11T06:05:03;34.00;;;11.23;;
31676;SDS011;18385;51.572;6.578;2024-01-11T06:07:28;33.38;;;10.90;;
31676;SDS011;18385;51.572;6.578;2024-01-11T06:09:54;38.80;;;12.25;;
31676;SDS011;18385;51.572;6.578;2024-01-11T06:12:20;30.27;;;11.95;;
31676;SDS011;18385;51.572;6.578;2024-01-11T06:14:45;30.75;;;10.70;;
31676;SDS011;18385;51.572;6.578;2024-01-11T06:17:12;30.10;;;10.35;;
31676;SDS011;18385;51.572;6.578;2024-01-11T06:19:38;31.73;;;11.70;;
31676;SDS011;18385;51.572;6.578;2024-01-11T06:22:04;38.28;;;15.02;;
31676;SDS011;18385;51.572;6.578;2024-01-11T06:24:30;33.70;;;15.35;;
31676;SDS011;18385;51.572;6.578;2024-01-11T06:26:56;44.60;;;13.75;;
31676;SDS011;18385;51.572;6.578;2024-01-11T06:29:22;34.92;;;12.65;;
31676;SDS011;18385;51.572;6.578;2024-01-11T06:31:47;27.88;;;11.55;;
31676;SDS011;18385;51.572;6.578;2024-01-11T06:34:13;37.90;;;12.75;;
31676;SDS011;18385;51.572;6.578;2024-01-11T06:36:38;35.28;;;12.45;;
31676;SDS011;18385;51.572;6.578;2024-01-11T06:39:04;32.08;;;11.30;;
31676;SDS011;18385;51.572;6.578;2024-01-11T06:41:30;29.33;;;11.07;;
31676;SDS011;18385;51.572;6.578;2024-01-11T06:43:56;33.05;;;10.95;;
31676;SDS011;18385;51.572;6.578;2024-01-11T06:46:22;28.52;;;10.80;;
31676;SDS011;18385;51.572;6.578;2024-01-11T06:48:48;29.45;;;10.40;;
31676;SDS011;18385;51.572;6.578;2024-01-11T06:51:20;31.05;;;11.35;;
31676;SDS011;18385;51.572;6.578;2024-01-11T06:53:46;30.67;;;12.25;;
31676;SDS011;18385;51.572;6.578;2024-01-11T06:56:16;29.90;;;10.75;;
31676;SDS011;18385;51.572;6.578;2024-01-11T06:58:43;32.22;;;11.35;;
31676;SDS011;18385;51.572;6.578;2024-01-11T07:01:10;31.90;;;10.82;;
31676;SDS011;18385;51.572;6.578;2024-01-11T07:03:36;33.70;;;11.68;;
31676;SDS011;18385;51.572;6.578;2024-01-11T07:06:02;25.45;;;9.60;;
31676;SDS011;18385;51.572;6.578;2024-01-11T07:08:28;30.60;;;11.60;;
31676;SDS011;18385;51.572;6.578;2024-01-11T07:10:55;31.13;;;11.77;;
31676;SDS011;18385;51.572;6.578;2024-01-11T07:13:20;38.03;;;11.85;;
31676;SDS011;18385;51.572;6.578;2024-01-11T07:15:46;33.22;;;11.38;;
31676;SDS011;18385;51.572;6.578;2024-01-11T07:18:13;40.03;;;15.90;;
31676;SDS011;18385;51.572;6.578;2024-01-11T07:20:39;27.92;;;10.10;;
31676;SDS011;18385;51.572;6.578;2024-01-11T07:23:05;31.85;;;10.80;;
31676;SDS011;18385;51.572;6.578;2024-01-11T07:25:31;34.17;;;11.88;;
31676;SDS011;18385;51.572;6.578;2024-01-11T07:27:57;22.92;;;10.07;;
31676;SDS011;18385;51.572;6.578;2024-01-11T07:30:23;38.42;;;13.05;;
31676;SDS011;18385;51.572;6.578;2024-01-11T07:32:49;29.80;;;11.82;;
31676;SDS011;18385;51.572;6.578;2024-01-11T07:35:15;34.63;;;11.95;;
31676;SDS011;18385;51.572;6.578;2024-01-11T07:37:40;38.88;;;12.60;;
31676;SDS011;18385;51.572;6.578;2024-01-11T07:40:06;35.33;;;12.63;;
31676;SDS011;18385;51.572;6.578;2024-01-11T07:42:39;31.20;;;11.10;;
31676;SDS011;18385;51.572;6.578;2024-01-11T07:47:37;34.47;;;10.65;;
31676;SDS011;18385;51.572;6.578;2024-01-11T07:50:04;26.75;;;10.73;;
31676;SDS011;18385;51.572;6.578;2024-01-11T07:52:32;34.97;;;11.23;;
31676;SDS011;18385;51.572;6.578;2024-01-11T07:54:58;31.77;;;11.98;;
31676;SDS011;18385;51.572;6.578;2024-01-11T07:57:31;30.35;;;11.57;;
31676;SDS011;18385;51.572;6.578;2024-01-11T07:59:58;32.47;;;11.85;;
31676;SDS011;18385;51.572;6.578;2024-01-11T08:02:24;25.90;;;10.50;;
31676;SDS011;18385;51.572;6.578;2024-01-11T08:04:50;25.95;;;10.05;;
31676;SDS011;18385;51.572;6.578;2024-01-11T08:07:16;26.83;;;11.30;;
31676;SDS011;18385;51.572;6.578;2024-01-11T08:09:42;29.75;;;10.43;;
31676;SDS011;18385;51.572;6.578;2024-01-11T08:12:16;29.08;;;11.07;;
31676;SDS011;18385;51.572;6.578;2024-01-11T08:14:42;28.77;;;10.13;;
31676;SDS011;18385;51.572;6.578;2024-01-11T08:17:08;25.60;;;9.00;;
31676;SDS011;18385;51.572;6.578;2024-01-11T08:19:34;27.38;;;9.75;;
31676;SDS011;18385;51.572;6.578;2024-01-11T08:22:00;27.60;;;10.05;;
31676;SDS011;18385;51.572;6.578;2024-01-11T08:24:26;27.20;;;10.25;;
31676;SDS011;18385;51.572;6.578;2024-01-11T08:26:51;26.17;;;9.68;;
31676;SDS011;18385;51.572;6.578;2024-01-11T08:29:18;25.58;;;8.80;;
31676;SDS011;18385;51.572;6.578;2024-01-11T08:31:47;27.10;;;10.20;;
31676;SDS011;18385;51.572;6.578;2024-01-11T08:34:13;27.17;;;9.55;;
31676;SDS011;18385;51.572;6.578;2024-01-11T08:36:39;31.25;;;11.60;;
31676;SDS011;18385;51.572;6.578;2024-01-11T08:39:05;27.75;;;10.90;;
31676;SDS011;18385;51.572;6.578;2024-01-11T08:41:31;27.77;;;10.13;;
31676;SDS011;18385;51.572;6.578;2024-01-11T08:43:57;28.30;;;9.45;;
31676;SDS011;18385;51.572;6.578;2024-01-11T08:46:26;27.48;;;9.88;;
31676;SDS011;18385;51.572;6.578;2024-01-11T08:48:52;29.33;;;11.13;;
31676;SDS011;18385;51.572;6.578;2024-01-11T08:51:18;28.98;;;10.25;;
31676;SDS011;18385;51.572;6.578;2024-01-11T08:53:44;30.10;;;11.35;;
31676;SDS011;18385;51.572;6.578;2024-01-11T08:56:10;28.35;;;11.45;;
31676;SDS011;18385;51.572;6.578;2024-01-11T08:58:35;39.80;;;12.68;;
31676;SDS011;18385;51.572;6.578;2024-01-11T09:01:01;31.48;;;13.13;;
31676;SDS011;18385;51.572;6.578;2024-01-11T09:03:28;75.32;;;27.13;;
31676;SDS011;18385;51.572;6.578;2024-01-11T09:05:54;42.90;;;16.55;;
31676;SDS011;18385;51.572;6.578;2024-01-11T09:08:22;47.28;;;17.48;;
31676;SDS011;18385;51.572;6.578;2024-01-11T09:10:48;39.80;;;14.52;;
31676;SDS011;18385;51.572;6.578;2024-01-11T09:13:13;31.73;;;12.68;;
31676;SDS011;18385;51.572;6.578;2024-01-11T09:15:41;35.97;;;15.57;;
31676;SDS011;18385;51.572;6.578;2024-01-11T09:18:07;34.15;;;12.43;;
31676;SDS011;18385;51.572;6.578;2024-01-11T09:20:32;26.73;;;11.18;;
31676;SDS011;18385;51.572;6.578;2024-01-11T09:22:58;33.33;;;12.63;;
31676;SDS011;18385;51.572;6.578;2024-01-11T09:25:24;37.60;;;13.52;;
31676;SDS011;18385;51.572;6.578;2024-01-11T09:27:50;33.95;;;12.20;;
31676;SDS011;18385;51.572;6.578;2024-01-11T09:30:15;40.85;;;15.27;;
31676;SDS011;18385;51.572;6.578;2024-01-11T09:32:41;44.60;;;14.73;;
31676;SDS011;18385;51.572;6.578;2024-01-11T09:35:07;30.52;;;12.10;;
31676;SDS011;18385;51.572;6.578;2024-01-11T09:37:34;30.20;;;11.35;;
31676;SDS011;18385;51.572;6.578;2024-01-11T09:39:59;33.70;;;11.27;;
31676;SDS011;18385;51.572;6.578;2024-01-11T09:42:28;28.27;;;11.38;;
31676;SDS011;18385;51.572;6.578;2024-01-11T09:44:55;25.38;;;10.85;;
31676;SDS011;18385;51.572;6.578;2024-01-11T09:47:21;29.88;;;11.20;;
31676;SDS011;18385;51.572;6.578;2024-01-11T09:49:48;26.75;;;11.88;;
31676;SDS011;18385;51.572;6.578;2024-01-11T09:52:19;34.20;;;11.98;;
31676;SDS011;18385;51.572;6.578;2024-01-11T09:54:46;28.15;;;10.93;;
31676;SDS011;18385;51.572;6.578;2024-01-11T09:57:12;31.30;;;12.18;;
31676;SDS011;18385;51.572;6.578;2024-01-11T09:59:45;30.20;;;11.00;;
31676;SDS011;18385;51.572;6.578;2024-01-11T10:02:11;30.63;;;11.55;;
31676;SDS011;18385;51.572;6.578;2024-01-11T10:04:37;32.50;;;11.88;;
31676;SDS011;18385;51.572;6.578;2024-01-11T10:07:04;27.50;;;10.45;;
31676;SDS011;18385;51.572;6.578;2024-01-11T10:09:31;27.42;;;11.55;;
31676;SDS011;18385;51.572;6.578;2024-01-11T10:11:57;24.85;;;10.75;;
31676;SDS011;18385;51.572;6.578;2024-01-11T10:14:23;23.67;;;10.25;;
31676;SDS011;18385;51.572;6.578;2024-01-11T10:16:49;29.00;;;11.05;;
31676;SDS011;18385;51.572;6.578;2024-01-11T10:19:15;29.73;;;12.43;;
31676;SDS011;18385;51.572;6.578;2024-01-11T10:21:41;27.63;;;11.00;;
31676;SDS011;18385;51.572;6.578;2024-01-11T10:24:07;29.40;;;10.77;;
31676;SDS011;18385;51.572;6.578;2024-01-11T10:26:33;27.40;;;11.32;;
31676;SDS011;18385;51.572;6.578;2024-01-11T10:28:59;25.38;;;10.70;;
31676;SDS011;18385;51.572;6.578;2024-01-11T10:31:27;23.73;;;10.60;;
31676;SDS011;18385;51.572;6.578;2024-01-11T10:33:54;29.17;;;11.15;;
31676;SDS011;18385;51.572;6.578;2024-01-11T10:36:19;27.77;;;10.35;;
31676;SDS011;18385;51.572;6.578;2024-01-11T10:38:46;30.23;;;12.40;;
31676;SDS011;18385;51.572;6.578;2024-01-11T10:41:12;26.38;;;10.93;;
31676;SDS011;18385;51.572;6.578;2024-01-11T10:43:42;29.95;;;11.57;;
31676;SDS011;18385;51.572;6.578;2024-01-11T10:46:08;25.70;;;10.93;;
31676;SDS011;18385;51.572;6.578;2024-01-11T10:48:38;28.98;;;11.05;;
31676;SDS011;18385;51.572;6.578;2024-01-11T10:51:09;27.45;;;10.77;;
31676;SDS011;18385;51.572;6.578;2024-01-11T10:56:12;27.00;;;10.50;;
31676;SDS011;18385;51.572;6.578;2024-01-11T10:58:40;29.80;;;11.82;;
31676;SDS011;18385;51.572;6.578;2024-01-11T11:01:07;25.90;;;10.52;;
31676;SDS011;18385;51.572;6.578;2024-01-11T11:03:34;23.05;;;10.10;;
31676;SDS011;18385;51.572;6.578;2024-01-11T11:06:01;28.50;;;10.75;;
31676;SDS011;18385;51.572;6.578;2024-01-11T11:08:27;26.58;;;10.75;;
31676;SDS011;18385;51.572;6.578;2024-01-11T11:10:56;23.90;;;10.00;;
31676;SDS011;18385;51.572;6.578;2024-01-11T11:13:23;26.02;;;10.57;;
31676;SDS011;18385;51.572;6.578;2024-01-11T11:15:49;29.15;;;11.30;;
31676;SDS011;18385;51.572;6.578;2024-01-11T11:18:15;26.15;;;10.30;;
31676;SDS011;18385;51.572;6.578;2024-01-11T11:20:42;26.20;;;10.48;;
31676;SDS011;18385;51.572;6.578;2024-01-11T11:23:08;30.88;;;11.65;;
31676;SDS011;18385;51.572;6.578;2024-01-11T11:25:36;26.05;;;9.80;;
31676;SDS011;18385;51.572;6.578;2024-01-11T11:28:02;25.13;;;10.02;;
31676;SDS011;18385;51.572;6.578;2024-01-11T11:30:39;25.88;;;10.10;;
31676;SDS011;18385;51.572;6.578;2024-01-11T11:33:09;24.35;;;9.98;;
31676;SDS011;18385;51.572;6.578;2024-01-11T11:35:35;26.60;;;10.23;;
31676;SDS011;18385;51.572;6.578;2024-01-11T11:38:02;22.08;;;10.75;;
31676;SDS011;18385;51.572;6.578;2024-01-11T11:43:08;25.15;;;9.35;;
31676;SDS011;18385;51.572;6.578;2024-01-11T11:45:34;22.27;;;8.98;;
31676;SDS011;18385;51.572;6.578;2024-01-11T11:48:01;20.95;;;9.55;;
31676;SDS011;18385;51.572;6.578;2024-01-11T11:50:27;22.25;;;9.60;;
31676;SDS011;18385;51.572;6.578;2024-01-11T11:52:56;22.95;;;8.90;;
31676;SDS011;18385;51.572;6.578;2024-01-11T11:55:22;23.30;;;9.93;;
31676;SDS011;18385;51.572;6.578;2024-01-11T11:57:52;23.42;;;8.95;;
31676;SDS011;18385;51.572;6.578;2024-01-11T12:00:19;26.85;;;9.55;;
31676;SDS011;18385;51.572;6.578;2024-01-11T12:02:48;24.42;;;9.50;;
31676;SDS011;18385;51.572;6.578;2024-01-11T12:05:16;24.00;;;9.43;;
31676;SDS011;18385;51.572;6.578;2024-01-11T12:07:44;21.85;;;8.38;;
31676;SDS011;18385;51.572;6.578;2024-01-11T12:10:10;21.85;;;9.27;;
31676;SDS011;18385;51.572;6.578;2024-01-11T12:12:37;23.20;;;9.80;;
31676;SDS011;18385;51.572;6.578;2024-01-11T12:15:04;22.98;;;9.43;;
31676;SDS011;18385;51.572;6.578;2024-01-11T12:17:30;25.73;;;9.48;;
31676;SDS011;18385;51.572;6.578;2024-01-11T12:19:56;25.65;;;10.07;;
31676;SDS011;18385;51.572;6.578;2024-01-11T12:22:21;19.42;;;8.23;;
31676;SDS011;18385;51.572;6.578;2024-01-11T12:24:48;24.10;;;9.35;;
31676;SDS011;18385;51.572;6.578;2024-01-11T12:27:14;29.88;;;9.70;;
31676;SDS011;18385;51.572;6.578;2024-01-11T12:29:40;25.65;;;10.50;;
31676;SDS011;18385;51.572;6.578;2024-01-11T12:32:06;22.67;;;8.57;;
31676;SDS011;18385;51.572;6.578;2024-01-11T12:34:36;25.33;;;9.98;;
31676;SDS011;18385;51.572;6.578;2024-01-11T12:37:01;25.90;;;9.13;;
31676;SDS011;18385;51.572;6.578;2024-01-11T12:39:30;23.38;;;9.23;;
31676;SDS011;18385;51.572;6.578;2024-01-11T12:41:56;24.73;;;8.02;;
31676;SDS011;18385;51.572;6.578;2024-01-11T12:44:22;22.33;;;9.10;;
31676;SDS011;18385;51.572;6.578;2024-01-11T12:46:49;21.40;;;9.13;;
31676;SDS011;18385;51.572;6.578;2024-01-11T12:49:16;28.23;;;10.20;;
31676;SDS011;18385;51.572;6.578;2024-01-11T12:51:42;25.23;;;8.90;;
31676;SDS011;18385;51.572;6.578;2024-01-11T12:54:14;26.73;;;10.10;;
31676;SDS011;18385;51.572;6.578;2024-01-11T12:56:42;25.48;;;9.23;;
31676;SDS011;18385;51.572;6.578;2024-01-11T12:59:09;20.48;;;8.15;;
31676;SDS011;18385;51.572;6.578;2024-01-11T13:01:36;22.95;;;9.07;;
31676;SDS011;18385;51.572;6.578;2024-01-11T13:04:03;20.38;;;8.50;;
31676;SDS011;18385;51.572;6.578;2024-01-11T13:06:32;20.83;;;9.00;;
31676;SDS011;18385;51.572;6.578;2024-01-11T13:09:00;23.88;;;9.65;;
31676;SDS011;18385;51.572;6.578;2024-01-11T13:11:27;25.65;;;9.05;;
31676;SDS011;18385;51.572;6.578;2024-01-11T13:13:53;20.88;;;9.10;;
31676;SDS011;18385;51.572;6.578;2024-01-11T13:16:19;27.88;;;9.98;;
31676;SDS011;18385;51.572;6.578;2024-01-11T13:18:45;21.13;;;8.50;;
31676;SDS011;18385;51.572;6.578;2024-01-11T13:21:11;21.10;;;8.43;;
31676;SDS011;18385;51.572;6.578;2024-01-11T13:23:37;19.85;;;9.07;;
31676;SDS011;18385;51.572;6.578;2024-01-11T13:26:05;20.75;;;9.20;;
31676;SDS011;18385;51.572;6.578;2024-01-11T13:28:31;22.45;;;9.43;;
31676;SDS011;18385;51.572;6.578;2024-01-11T13:30:58;23.48;;;8.05;;
31676;SDS011;18385;51.572;6.578;2024-01-11T13:33:24;21.88;;;8.20;;
31676;SDS011;18385;51.572;6.578;2024-01-11T13:35:50;21.20;;;8.77;;
31676;SDS011;18385;51.572;6.578;2024-01-11T13:38:16;19.02;;;8.32;;
31676;SDS011;18385;51.572;6.578;2024-01-11T13:40:42;19.42;;;8.80;;
31676;SDS011;18385;51.572;6.578;2024-01-11T13:43:08;20.27;;;8.93;;
31676;SDS011;18385;51.572;6.578;2024-01-11T13:45:35;18.80;;;7.68;;
31676;SDS011;18385;51.572;6.578;2024-01-11T13:48:02;17.67;;;7.93;;
31676;SDS011;18385;51.572;6.578;2024-01-11T13:50:29;18.60;;;7.05;;
31676;SDS011;18385;51.572;6.578;2024-01-11T13:52:54;16.98;;;8.27;;
31676;SDS011;18385;51.572;6.578;2024-01-11T13:55:20;20.55;;;6.75;;
31676;SDS011;18385;51.572;6.578;2024-01-11T13:57:46;14.85;;;6.32;;
31676;SDS011;18385;51.572;6.578;2024-01-11T14:00:13;15.02;;;6.35;;
31676;SDS011;18385;51.572;6.578;2024-01-11T14:02:39;15.05;;;5.88;;
31676;SDS011;18385;51.572;6.578;2024-01-11T14:05:09;16.42;;;6.85;;
31676;SDS011;18385;51.572;6.578;2024-01-11T14:07:38;10.88;;;4.65;;
31676;SDS011;18385;51.572;6.578;2024-01-11T14:10:05;10.68;;;4.82;;
31676;SDS011;18385;51.572;6.578;2024-01-11T14:12:33;9.90;;;4.18;;
31676;SDS011;18385;51.572;6.578;2024-01-11T14:15:01;11.60;;;4.70;;
31676;SDS011;18385;51.572;6.578;2024-01-11T14:17:34;10.10;;;3.45;;
31676;SDS011;18385;51.572;6.578;2024-01-11T14:20:00;7.63;;;3.10;;
31676;SDS011;18385;51.572;6.578;2024-01-11T14:22:26;7.13;;;3.42;;
31676;SDS011;18385;51.572;6.578;2024-01-11T14:24:52;9.20;;;2.75;;
31676;SDS011;18385;51.572;6.578;2024-01-11T14:27:19;9.35;;;3.22;;
31676;SDS011;18385;51.572;6.578;2024-01-11T14:29:46;6.10;;;2.83;;